• Join FlightAware (Why Join?)
  • Login
  • US Flag 
10:03AM EDT


 

Airport Tracker/Info


-or-


 

Live Flight TrackerFlight Track Log ✈ SWA714 ✈ 10-Apr-2013 ✈ KSAT - KDAL

Flight Track Log - Related Links

Times and Time Zones

All times are in EDT time to prevent confusion due to time zone crossing. See the SWA714 flight status page for this flight to view local times or setup timezone preferences in your user account.

Time Position Orientation Groundspeed Altitude Reporting Facility
EDT Latitude Longitude Course Direction KTS MPH feet Rate Location/Type
04:14PM 29.5461 -98.4900 307° West 153 176 1,700  Level Houston Center
04:15PM 29.5633 -98.5167 307° West 164 189 2,800 2,160 Climbing Houston Center
04:16PM 29.5917 -98.5639 305° West 207 238 4,900 2,400 Climbing Houston Center
04:17PM 29.6647 -98.5719 355° North 275 316 7,300 2,580 Climbing Houston Center
04:18PM 29.7561 -98.5544 North 308 354 10,300 2,220 Climbing Houston Center
04:19PM 29.8586 -98.5353 North 383 441 12,000 1,980 Climbing Houston Center
04:20PM 29.9689 -98.5144 North 402 463 14,400 2,460 Climbing Houston Center
04:21PM 30.0956 -98.4869 11° North 426 490 17,200 2,460 Climbing Houston Center
04:22PM 30.2172 -98.4628 10° North 478 550 19,600 2,160 Climbing Houston Center
04:23PM 30.3481 -98.4356 10° North 452 520 21,700 1,800 Climbing Houston Center
04:24PM 30.4764 -98.4075 11° North 460 529 23,400 1,740 Climbing Houston Center
04:25PM 30.6122 -98.3789 10° North 481 554 25,300 1,500 Climbing Houston Center
04:26PM 30.7469 -98.3500 10° North 485 558 26,600 1,260 Climbing Houston Center
04:27PM 30.8875 -98.3206 10° North 500 575 28,000 1,140 Climbing Houston Center
04:28PM 31.0300 -98.2906 10° North 510 587 29,000 480 Climbing Houston Center
04:29PM 31.1939 -98.2389 15° North 510 587 29,000  Level Fort Worth Center
04:30PM 31.3092 -98.1647 29° Northeast 521 600 29,000  Level Fort Worth Center
04:31PM 31.4350 -98.0756 31° Northeast 531 611 29,000 -1,320 Level Fort Worth Center
04:32PM 31.5647 -97.9886 30° Northeast 531 611 26,400 -2,700 Descending Fort Worth Center
04:33PM 31.6883 -97.9017 31° Northeast 526 605 23,700 -2,700 Descending Fort Worth Center
04:34PM 31.8181 -97.8119 30° Northeast 508 585 21,100 -2,580 Descending Fort Worth Center
04:35PM 31.9311 -97.7342 30° Northeast 483 556 18,600 -2,460 Descending Fort Worth Center
04:36PM 32.0272 -97.6633 32° Northeast 455 524 16,200 -2,580 Descending Fort Worth Center
04:37PM 32.1444 -97.5803 31° Northeast 447 514 13,500 -2,040 Descending Fort Worth Center
04:38PM 32.2364 -97.5164 30° Northeast 429 494 12,200 -1,140 Descending Fort Worth Center
04:39PM 32.3261 -97.4428 35° Northeast 381 438 11,300 -1,200 Descending Fort Worth Center
04:40PM 32.3761 -97.3642 53° Northeast 319 367 9,800 -1,500 Descending Fort Worth Center
04:41PM 32.3761 -97.2536 90° East 302 348 8,100 -1,680 Descending Fort Worth Center
04:42PM 32.3675 -97.1331 95° East 302 348 6,200 -1,620 Descending Fort Worth Center
04:43PM 32.3569 -97.0372 97° East 297 342 4,900 -1,140 Descending Fort Worth Center
04:44PM 32.3775 -96.9508 74° East 276 318 4,000 -480 Descending Fort Worth Center
04:45PM 32.4022 -96.8672 71° East 270 311 4,000  Level Fort Worth Center
04:46PM 32.4458 -96.8225 41° Northeast 238 274 4,000  Level Fort Worth Center
04:47PM 32.4956 -96.7706 41° Northeast 215 247 4,000  Level Fort Worth Center
04:48PM 32.5350 -96.7283 42° Northeast 210 242 4,000  Level Fort Worth Center
04:49PM 32.5892 -96.6908 30° Northeast 204 235 4,000 -120 Level Fort Worth Center
04:50PM 32.6372 -96.6783 12° North 194 223 3,800 -660 Descending Fort Worth Center
04:51PM 32.6833 -96.6833 355° North 200 230 3,000 -840 Descending Dallas / Fort Worth TRACON
04:52PM 32.7167 -96.7167 320° Northwest 158 182 2,500 -300 Descending Dallas / Fort Worth TRACON
04:53PM 32.7500 -96.7500 320° Northwest 144 166 2,400 -120 Descending Dallas / Fort Worth TRACON